You are not logged in, Click here to log in
卑爾根機場BGO / ENBR 挪威卑爾根西南方6.5海里(12公里、7.5英里)
ICAO: ENBR Country: 挪威卑爾根西南方6.5海里(12公里、7.5英里)
Latitude: 60.2934 Longitude: 5.21814
Total Arrivals: 7 Total Departures: 5
Latest Arrival: KL118701 (ENSH-ENBR)Stone. Chang Latest Departure: SK28730 (ENBR-ENSH)Stone. Chang
Scenery: http://forums.x-plane.org/index.php?/files/file/23963-enbr-bergen-fleslan-intl-norway/
METAR : ENBR 092150Z 35010KT 9999 FEW015CB SCT055 02/M01 Q1009 RMK WIND 1200FT 34016KT

卑爾根機場BGO

You are accessing this site from IP address 35.170.81.210. Virtual Airline. CMS by phpVMS.Website designed by Zumeweb and edited by Theo Bearman.
There is 0 User(s) Online: | and 4 Guest(s) Online.
All information on this site is for fight simulation purposes only. This site is for flight logging for pilots of Virtual Airline&模擬飛行論壇 FlySim only.